createdAt,value
2023-01-21T00:00:45.903Z,-3.12
2023-01-21T00:01:46.661Z,-3.09
2023-01-21T00:02:45.615Z,-3.12
2023-01-21T00:03:45.645Z,-3.22
2023-01-21T00:04:45.575Z,-3.25
2023-01-21T00:05:45.561Z,-3.16
2023-01-21T00:06:45.561Z,-3.10
2023-01-21T00:07:45.514Z,-3.09
2023-01-21T00:08:45.493Z,-3.04
2023-01-21T00:09:45.471Z,-3.13
2023-01-21T00:10:45.461Z,-3.12
2023-01-21T00:11:45.456Z,-3.12
2023-01-21T00:12:45.438Z,-3.17
2023-01-21T00:13:45.387Z,-3.17
2023-01-21T00:14:45.365Z,-3.23
2023-01-21T00:15:45.459Z,-3.07
2023-01-21T00:16:45.346Z,-3.10
2023-01-21T00:17:45.307Z,-3.10
2023-01-21T00:18:45.281Z,-3.06
2023-01-21T00:19:45.258Z,-3.17
2023-01-21T00:20:45.238Z,-3.04
2023-01-21T00:21:45.245Z,-3.17
2023-01-21T00:22:45.195Z,-3.13
2023-01-21T00:23:45.173Z,-3.07
2023-01-21T00:24:45.156Z,-2.99
2023-01-21T00:25:45.135Z,-3.01
2023-01-21T00:26:45.139Z,-2.99
2023-01-21T00:27:45.096Z,-2.94
2023-01-21T00:28:45.079Z,-3.01
2023-01-21T00:29:45.056Z,-2.92
2023-01-21T00:30:45.147Z,-2.92
2023-01-21T00:31:45.089Z,-2.92
2023-01-21T00:32:45.005Z,-3.01
2023-01-21T00:33:44.990Z,-2.95
2023-01-21T00:34:44.951Z,-3.15
2023-01-21T00:35:44.930Z,-3.02
2023-01-21T00:36:44.938Z,-3.07
2023-01-21T00:37:44.888Z,-3.04
2023-01-21T00:38:44.868Z,-3.16
2023-01-21T00:39:44.845Z,-3.09
2023-01-21T00:40:44.823Z,-3.06
2023-01-21T00:41:44.828Z,-3.02
2023-01-21T00:42:44.782Z,-3.12
2023-01-21T00:43:44.760Z,-3.06
2023-01-21T00:44:44.739Z,-2.95
2023-01-21T00:45:44.720Z,-3.02
2023-01-21T00:46:44.725Z,-3.02
2023-01-21T00:47:44.677Z,-3.12
2023-01-21T00:48:44.648Z,-3.13
2023-01-21T00:49:44.640Z,-3.13
2023-01-21T00:50:44.612Z,-3.09
2023-01-21T00:51:44.614Z,-3.04
2023-01-21T00:52:44.574Z,-3.13
2023-01-21T00:53:44.548Z,-3.12
2023-01-21T00:54:44.522Z,-3.22
2023-01-21T00:55:44.507Z,-3.07
2023-01-21T00:56:44.513Z,-3.12
2023-01-21T00:57:44.464Z,-3.07
2023-01-21T00:58:44.449Z,-2.88
2023-01-21T00:59:44.435Z,-3.04
2023-01-21T01:00:44.399Z,-2.98
2023-01-21T01:01:44.419Z,-3.13
2023-01-21T01:02:44.376Z,-3.16
2023-01-21T01:03:44.339Z,-3.15
2023-01-21T01:04:44.316Z,-3.13
2023-01-21T01:05:44.292Z,-3.28
2023-01-21T01:06:44.300Z,-3.19
2023-01-21T01:07:44.252Z,-3.20
2023-01-21T01:08:44.227Z,-3.25
2023-01-21T01:09:44.220Z,-3.23
2023-01-21T01:10:44.202Z,-3.27
2023-01-21T01:11:44.197Z,-3.23
2023-01-21T01:12:44.159Z,-3.20
2023-01-21T01:13:44.130Z,-3.16
2023-01-21T01:14:44.123Z,-3.25
2023-01-21T01:15:44.132Z,-3.28
2023-01-21T01:16:44.097Z,-3.31
2023-01-21T01:17:44.049Z,-3.37
2023-01-21T01:18:44.029Z,-3.34
2023-01-21T01:19:43.997Z,-3.31
2023-01-21T01:20:44.992Z,-3.31
2023-01-21T01:21:43.991Z,-3.31
2023-01-21T01:22:43.946Z,-3.27
2023-01-21T01:23:43.928Z,-3.28
2023-01-21T01:24:43.898Z,-3.27
2023-01-21T01:25:43.879Z,-3.34
2023-01-21T01:26:43.887Z,-3.33
2023-01-21T01:27:43.836Z,-3.51
2023-01-21T01:28:43.822Z,-3.37
2023-01-21T01:29:43.794Z,-3.38
2023-01-21T01:30:43.797Z,-3.33
2023-01-21T01:31:43.825Z,-3.40
2023-01-21T01:32:44.745Z,-3.33
2023-01-21T01:33:43.736Z,-3.44
2023-01-21T01:34:43.688Z,-3.41
2023-01-21T01:35:43.669Z,-3.33
2023-01-21T01:36:43.674Z,-3.34
2023-01-21T01:37:43.624Z,-3.34
2023-01-21T01:38:43.606Z,-3.37
2023-01-21T01:39:43.581Z,-3.40
2023-01-21T01:40:43.571Z,-3.46
2023-01-21T01:41:43.566Z,-3.46
2023-01-21T01:42:43.518Z,-3.59
2023-01-21T01:43:43.503Z,-3.56
2023-01-21T01:44:43.484Z,-3.51
2023-01-21T01:45:43.461Z,-3.54
2023-01-21T01:46:43.528Z,-3.64
2023-01-21T01:47:43.414Z,-3.75
2023-01-21T01:48:43.391Z,-3.78
2023-01-21T01:49:43.371Z,-3.70
2023-01-21T01:50:43.426Z,-3.74
2023-01-21T01:51:43.377Z,-3.80
2023-01-21T01:52:43.310Z,-3.74
2023-01-21T01:53:43.290Z,-3.70
2023-01-21T01:54:43.269Z,-3.75
2023-01-21T01:55:43.248Z,-3.59
2023-01-21T01:56:43.277Z,-3.66
2023-01-21T01:57:43.210Z,-3.67
2023-01-21T01:58:43.185Z,-3.70
2023-01-21T01:59:43.171Z,-3.51
2023-01-21T02:00:43.149Z,-3.70
2023-01-21T02:01:43.232Z,-3.59
2023-01-21T02:02:43.163Z,-3.74
2023-01-21T02:03:43.085Z,-3.69
2023-01-21T02:04:43.062Z,-3.78
2023-01-21T02:05:43.043Z,-3.70
2023-01-21T02:06:43.028Z,-3.69
2023-01-21T02:07:43.027Z,-3.69
2023-01-21T02:08:42.984Z,-3.75
2023-01-21T02:09:42.972Z,-3.80
2023-01-21T02:10:42.947Z,-3.80
2023-01-21T02:11:42.932Z,-3.77
2023-01-21T02:12:42.929Z,-3.82
2023-01-21T02:13:42.883Z,-3.75
2023-01-21T02:14:42.901Z,-3.85
2023-01-21T02:15:42.840Z,-3.75
2023-01-21T02:16:42.822Z,-3.83
2023-01-21T02:17:42.827Z,-3.88
2023-01-21T02:18:42.784Z,-3.95
2023-01-21T02:19:42.773Z,-3.88
2023-01-21T02:20:42.739Z,-3.89
2023-01-21T02:21:42.721Z,-3.86
2023-01-21T02:22:42.736Z,-3.92
2023-01-21T02:23:42.680Z,-3.96
2023-01-21T02:24:42.660Z,-3.80
2023-01-21T02:25:42.667Z,-3.78
2023-01-21T02:26:42.623Z,-3.78
2023-01-21T02:27:42.643Z,-3.77
2023-01-21T02:28:42.579Z,-3.96
2023-01-21T02:29:42.564Z,-3.92
2023-01-21T02:30:42.653Z,-3.96
2023-01-21T02:31:42.542Z,-4.04
2023-01-21T02:32:42.520Z,-3.93
2023-01-21T02:33:42.474Z,-3.96
2023-01-21T02:34:42.451Z,-3.92
2023-01-21T02:35:42.428Z,-3.93
2023-01-21T02:36:42.409Z,-4.06
2023-01-21T02:37:42.414Z,-4.07
2023-01-21T02:38:42.362Z,-4.07
2023-01-21T02:39:42.357Z,-4.12
2023-01-21T02:40:42.326Z,-4.16
2023-01-21T02:41:42.304Z,-4.10
2023-01-21T02:42:42.299Z,-4.24
2023-01-21T02:43:42.256Z,-4.22
2023-01-21T02:44:42.233Z,-4.27
2023-01-21T02:45:42.221Z,-4.14
2023-01-21T02:46:42.253Z,-4.39
2023-01-21T02:47:42.200Z,-4.27
2023-01-21T02:48:42.156Z,-4.31
2023-01-21T02:49:42.141Z,-4.34
2023-01-21T02:50:42.118Z,-4.34
2023-01-21T02:51:42.093Z,-4.34
2023-01-21T02:52:42.096Z,-4.39
2023-01-21T02:53:42.048Z,-4.42
2023-01-21T02:54:42.033Z,-4.42
2023-01-21T02:55:43.485Z,-4.30
2023-01-21T02:56:42.983Z,-4.43
2023-01-21T02:57:41.987Z,-4.38
2023-01-21T02:58:41.944Z,-4.39
2023-01-21T02:59:41.927Z,-4.53
2023-01-21T03:00:41.933Z,-4.49
2023-01-21T03:01:41.896Z,-4.49
2023-01-21T03:02:41.882Z,-4.59
2023-01-21T03:03:41.842Z,-4.67
2023-01-21T03:04:41.820Z,-4.63
2023-01-21T03:05:41.797Z,-4.64
2023-01-21T03:06:41.770Z,-4.61
2023-01-21T03:07:42.783Z,-4.66
2023-01-21T03:08:41.736Z,-4.61
2023-01-21T03:09:41.720Z,-4.84
2023-01-21T03:10:41.703Z,-4.88
2023-01-21T03:11:41.677Z,-4.88
2023-01-21T03:12:41.679Z,-4.87
2023-01-21T03:13:41.638Z,-4.91
2023-01-21T03:14:41.619Z,-4.87
2023-01-21T03:15:41.598Z,-4.89
2023-01-21T03:16:41.620Z,-5.02
2023-01-21T03:17:41.580Z,-4.99
2023-01-21T03:18:41.537Z,-5.10
2023-01-21T03:19:41.540Z,-5.14
2023-01-21T03:20:41.496Z,-5.13
2023-01-21T03:21:41.477Z,-5.18
2023-01-21T03:22:41.502Z,-5.13
2023-01-21T03:23:41.438Z,-5.09
2023-01-21T03:24:41.419Z,-5.17
2023-01-21T03:25:41.399Z,-5.27
2023-01-21T03:26:41.384Z,-5.21
2023-01-21T03:27:41.407Z,-5.25
2023-01-21T03:28:42.336Z,-5.14
2023-01-21T03:29:41.316Z,-5.10
2023-01-21T03:30:41.334Z,-5.02
2023-01-21T03:31:41.333Z,-5.02
2023-01-21T03:32:41.282Z,-4.96
2023-01-21T03:33:41.238Z,-4.95
2023-01-21T03:34:41.220Z,-4.88
2023-01-21T03:35:41.193Z,-4.91
2023-01-21T03:36:41.176Z,-4.88
2023-01-21T03:37:41.191Z,-4.89
2023-01-21T03:38:41.134Z,-4.85
2023-01-21T03:39:41.116Z,-4.87
2023-01-21T03:40:41.092Z,-4.79
2023-01-21T03:41:41.073Z,-4.79
2023-01-21T03:42:41.075Z,-4.71
2023-01-21T03:43:41.032Z,-4.79
2023-01-21T03:44:41.022Z,-4.84
2023-01-21T03:45:41.018Z,-4.70
2023-01-21T03:46:40.974Z,-4.69
2023-01-21T03:47:40.973Z,-4.71
2023-01-21T03:48:40.930Z,-4.70
2023-01-21T03:49:40.915Z,-4.69
2023-01-21T03:50:40.895Z,-4.67
2023-01-21T03:51:40.873Z,-4.63
2023-01-21T03:52:40.881Z,-4.66
2023-01-21T03:53:40.833Z,-4.61
2023-01-21T03:54:40.813Z,-4.66
2023-01-21T03:55:40.800Z,-4.64
2023-01-21T03:56:40.774Z,-4.60
2023-01-21T03:57:40.797Z,-4.55
2023-01-21T03:58:40.739Z,-4.42
2023-01-21T03:59:40.720Z,-4.41
2023-01-21T04:00:40.743Z,-4.39
2023-01-21T04:01:40.684Z,-4.34
2023-01-21T04:02:40.683Z,-4.43
2023-01-21T04:03:40.636Z,-4.32
2023-01-21T04:04:40.614Z,-4.34
2023-01-21T04:05:40.601Z,-4.31
2023-01-21T04:06:40.575Z,-4.24
2023-01-21T04:07:40.584Z,-4.41
2023-01-21T04:08:40.543Z,-4.42
2023-01-21T04:09:40.520Z,-4.41
2023-01-21T04:10:40.495Z,-4.63
2023-01-21T04:11:40.476Z,-4.70
2023-01-21T04:12:40.481Z,-4.69
2023-01-21T04:13:40.433Z,-4.63
2023-01-21T04:14:40.419Z,-4.67
2023-01-21T04:15:40.395Z,-4.60
2023-01-21T04:16:40.438Z,-4.57
2023-01-21T04:17:40.385Z,-4.53
2023-01-21T04:18:40.331Z,-4.66
2023-01-21T04:19:40.318Z,-4.52
2023-01-21T04:20:40.329Z,-4.67
2023-01-21T04:21:40.269Z,-4.63
2023-01-21T04:22:40.280Z,-4.66
2023-01-21T04:23:40.253Z,-4.71
2023-01-21T04:24:40.217Z,-4.73
2023-01-21T04:25:40.190Z,-4.57
2023-01-21T04:26:40.176Z,-4.64
2023-01-21T04:27:40.180Z,-4.59
2023-01-21T04:28:40.133Z,-4.46
2023-01-21T04:29:40.102Z,-4.41
2023-01-21T04:30:40.097Z,-4.31
2023-01-21T04:31:40.098Z,-4.27
2023-01-21T04:32:40.075Z,-4.14
2023-01-21T04:33:40.027Z,-4.20
2023-01-21T04:34:39.997Z,-4.09
2023-01-21T04:35:39.974Z,-3.96
2023-01-21T04:36:39.964Z,-3.88
2023-01-21T04:37:39.961Z,-3.82
2023-01-21T04:38:39.915Z,-3.78
2023-01-21T04:39:39.891Z,-3.77
2023-01-21T04:40:39.871Z,-3.78
2023-01-21T04:41:39.852Z,-3.72
2023-01-21T04:42:39.860Z,-3.75
2023-01-21T04:43:39.814Z,-3.77
2023-01-21T04:44:39.798Z,-3.82
2023-01-21T04:45:39.788Z,-3.93
2023-01-21T04:46:39.749Z,-3.88
2023-01-21T04:47:39.755Z,-3.88
2023-01-21T04:48:39.708Z,-3.88
2023-01-21T04:49:39.692Z,-3.99
2023-01-21T04:50:39.686Z,-3.92
2023-01-21T04:51:39.650Z,-3.91
2023-01-21T04:52:39.666Z,-3.78
2023-01-21T04:53:39.636Z,-3.80
2023-01-21T04:54:39.627Z,-3.78
2023-01-21T04:55:39.578Z,-3.78
2023-01-21T04:56:39.555Z,-3.70
2023-01-21T04:57:39.579Z,-3.80
2023-01-21T04:58:39.511Z,-3.72
2023-01-21T04:59:39.510Z,-3.74
2023-01-21T05:00:39.475Z,-3.86
2023-01-21T05:01:39.456Z,-3.70
2023-01-21T05:02:39.498Z,-3.67
2023-01-21T05:03:39.441Z,-3.59
2023-01-21T05:04:39.395Z,-3.63
2023-01-21T05:05:39.379Z,-3.49
2023-01-21T05:06:39.353Z,-3.52
2023-01-21T05:07:39.339Z,-3.59
2023-01-21T05:08:39.335Z,-3.58
2023-01-21T05:09:39.293Z,-3.54
2023-01-21T05:10:39.270Z,-3.54
2023-01-21T05:11:39.252Z,-3.44
2023-01-21T05:12:39.234Z,-3.44
2023-01-21T05:13:39.235Z,-3.49
2023-01-21T05:14:39.209Z,-3.51
2023-01-21T05:15:39.204Z,-3.38
2023-01-21T05:16:39.206Z,-3.35
2023-01-21T05:17:39.142Z,-3.31
2023-01-21T05:18:39.136Z,-3.27
2023-01-21T05:19:39.088Z,-3.20
2023-01-21T05:20:39.067Z,-3.25
2023-01-21T05:21:39.047Z,-3.15
2023-01-21T05:22:39.030Z,-3.27
2023-01-21T05:23:39.033Z,-3.13
2023-01-21T05:24:38.991Z,-3.07
2023-01-21T05:25:38.971Z,-3.13
2023-01-21T05:26:38.943Z,-3.07
2023-01-21T05:27:38.927Z,-3.06
2023-01-21T05:28:38.925Z,-3.10
2023-01-21T05:29:38.879Z,-3.07
2023-01-21T05:30:40.768Z,-3.01
2023-01-21T05:31:39.954Z,-3.10
2023-01-21T05:32:38.825Z,-2.97
2023-01-21T05:33:38.841Z,-3.02
2023-01-21T05:34:38.808Z,-2.95
2023-01-21T05:35:38.762Z,-2.99
2023-01-21T05:36:38.740Z,-3.15
2023-01-21T05:37:38.714Z,-3.12
2023-01-21T05:38:38.721Z,-3.04
2023-01-21T05:39:38.677Z,-2.99
2023-01-21T05:40:38.641Z,-2.92
2023-01-21T05:41:39.644Z,-2.95
2023-01-21T05:42:38.612Z,-2.97
2023-01-21T05:43:38.637Z,-2.97
2023-01-21T05:44:38.574Z,-2.84
2023-01-21T05:45:38.562Z,-2.92
2023-01-21T05:46:38.532Z,-2.94
2023-01-21T05:47:38.514Z,-2.92
2023-01-21T05:48:38.517Z,-2.91
2023-01-21T05:49:38.472Z,-2.92
2023-01-21T05:50:38.451Z,-2.92
2023-01-21T05:51:38.433Z,-2.91
2023-01-21T05:52:38.406Z,-2.84
2023-01-21T05:53:38.425Z,-3.02
2023-01-21T05:54:42.019Z,-2.91
2023-01-21T05:55:39.350Z,-2.95
2023-01-21T05:56:38.325Z,-2.86
2023-01-21T05:57:38.318Z,-2.91
2023-01-21T05:58:38.310Z,-2.98
2023-01-21T05:59:38.259Z,-2.88
2023-01-21T06:00:38.239Z,-2.92
2023-01-21T06:01:38.236Z,-3.07
2023-01-21T06:02:38.220Z,-3.01
2023-01-21T06:03:38.345Z,-2.97
2023-01-21T06:04:38.157Z,-2.94
2023-01-21T06:05:38.135Z,-2.95
2023-01-21T06:06:38.114Z,-2.95
2023-01-21T06:07:38.097Z,-2.91
2023-01-21T06:08:38.101Z,-2.95
2023-01-21T06:09:38.050Z,-2.84
2023-01-21T06:10:38.029Z,-2.91
2023-01-21T06:11:38.005Z,-2.94
2023-01-21T06:12:37.987Z,-2.86
2023-01-21T06:13:37.990Z,-2.88
2023-01-21T06:14:37.941Z,-2.83
2023-01-21T06:15:37.962Z,-2.89
2023-01-21T06:16:37.901Z,-2.86
2023-01-21T06:17:37.878Z,-2.94
2023-01-21T06:18:37.897Z,-2.94
2023-01-21T06:19:37.842Z,-2.94
2023-01-21T06:20:37.818Z,-2.91
2023-01-21T06:21:37.803Z,-2.92
2023-01-21T06:22:37.779Z,-2.92
2023-01-21T06:23:37.782Z,-2.88
2023-01-21T06:24:37.737Z,-2.91
2023-01-21T06:25:37.709Z,-2.94
2023-01-21T06:26:37.689Z,-2.88
2023-01-21T06:27:37.669Z,-2.88
2023-01-21T06:28:37.671Z,-3.02
2023-01-21T06:29:37.630Z,-2.97
2023-01-21T06:30:37.611Z,-2.97
2023-01-21T06:31:37.715Z,-3.02
2023-01-21T06:32:37.568Z,-3.10
2023-01-21T06:33:37.578Z,-3.09
2023-01-21T06:34:37.527Z,-3.06
2023-01-21T06:35:37.517Z,-2.94
2023-01-21T06:36:37.493Z,-2.94
2023-01-21T06:37:37.482Z,-2.83
2023-01-21T06:38:37.467Z,-2.89
2023-01-21T06:39:37.422Z,-2.89
2023-01-21T06:40:37.398Z,-2.86
2023-01-21T06:41:37.385Z,-2.88
2023-01-21T06:42:37.365Z,-2.98
2023-01-21T06:43:37.365Z,-2.84
2023-01-21T06:44:37.321Z,-2.84
2023-01-21T06:45:37.298Z,-2.74
2023-01-21T06:46:41.053Z,-2.83
2023-01-21T06:47:37.261Z,-2.94
2023-01-21T06:48:37.264Z,-2.97
2023-01-21T06:49:37.219Z,-2.92
2023-01-21T06:50:37.199Z,-2.98
2023-01-21T06:51:37.188Z,-2.92
2023-01-21T06:52:37.156Z,-2.95
2023-01-21T06:53:37.158Z,-2.95
2023-01-21T06:54:37.123Z,-3.04
2023-01-21T06:55:37.106Z,-3.06
2023-01-21T06:56:37.097Z,-3.02
2023-01-21T06:57:37.054Z,-2.98
2023-01-21T06:58:37.059Z,-3.04
2023-01-21T06:59:37.026Z,-3.07
2023-01-21T07:00:36.985Z,-3.09
2023-01-21T07:01:37.006Z,-2.98
2023-01-21T07:02:36.962Z,-3.04
2023-01-21T07:03:36.960Z,-3.12
2023-01-21T07:04:36.934Z,-3.04
2023-01-21T07:05:36.889Z,-3.07
2023-01-21T07:06:36.860Z,-3.02
2023-01-21T07:07:36.837Z,-2.97
2023-01-21T07:08:36.845Z,-3.02
2023-01-21T07:09:37.069Z,-2.95
2023-01-21T07:10:36.772Z,-3.12
2023-01-21T07:11:36.752Z,-2.99
2023-01-21T07:12:36.729Z,-3.04
2023-01-21T07:13:36.735Z,-3.01
2023-01-21T07:14:36.688Z,-2.94
2023-01-21T07:15:36.697Z,-2.92
2023-01-21T07:16:36.646Z,-2.99
2023-01-21T07:17:36.620Z,-2.99
2023-01-21T07:18:36.629Z,-2.99
2023-01-21T07:19:36.582Z,-2.92
2023-01-21T07:20:36.592Z,-2.99
2023-01-21T07:21:36.538Z,-2.94
2023-01-21T07:22:36.526Z,-2.99
2023-01-21T07:23:36.499Z,-2.89
2023-01-21T07:24:36.478Z,-2.97
2023-01-21T07:25:36.485Z,-2.89
2023-01-21T07:26:36.440Z,-2.84
2023-01-21T07:27:36.427Z,-3.01
2023-01-21T07:28:36.423Z,-2.94
2023-01-21T07:29:36.375Z,-2.92
2023-01-21T07:30:36.352Z,-2.92
2023-01-21T07:31:36.451Z,-2.88
2023-01-21T07:32:36.323Z,-2.88
2023-01-21T07:33:36.330Z,-2.95
2023-01-21T07:34:36.273Z,-2.86
2023-01-21T07:35:36.270Z,-2.97
2023-01-21T07:36:36.240Z,-3.06
2023-01-21T07:37:36.217Z,-3.07
2023-01-21T07:38:36.224Z,-2.97
2023-01-21T07:39:36.172Z,-3.04
2023-01-21T07:40:36.156Z,-2.98
2023-01-21T07:41:36.154Z,-3.01
2023-01-21T07:42:36.110Z,-2.89
2023-01-21T07:43:36.118Z,-2.95
2023-01-21T07:44:36.069Z,-2.95
2023-01-21T07:45:36.049Z,-2.91
2023-01-21T07:46:36.120Z,-2.98
2023-01-21T07:47:36.007Z,-2.92
2023-01-21T07:48:36.021Z,-2.92
2023-01-21T07:49:35.968Z,-2.84
2023-01-21T07:50:35.951Z,-2.88
2023-01-21T07:51:35.928Z,-2.88
2023-01-21T07:52:35.904Z,-2.88
2023-01-21T07:53:35.917Z,-2.94
2023-01-21T07:54:35.863Z,-3.01
2023-01-21T07:55:35.840Z,-2.88
2023-01-21T07:56:35.819Z,-2.92
2023-01-21T07:57:35.800Z,-2.89
2023-01-21T07:58:35.811Z,-2.88
2023-01-21T07:59:35.759Z,-2.83
2023-01-21T08:00:35.736Z,-2.89
2023-01-21T08:01:35.734Z,-2.89
2023-01-21T08:02:35.874Z,-2.95
2023-01-21T08:03:35.682Z,-2.86
2023-01-21T08:04:35.684Z,-2.86
2023-01-21T08:05:35.635Z,-2.95
2023-01-21T08:06:35.616Z,-2.88
2023-01-21T08:07:35.593Z,-2.92
2023-01-21T08:08:35.607Z,-2.92
2023-01-21T08:09:35.580Z,-2.86
2023-01-21T08:10:35.535Z,-2.89
2023-01-21T08:11:35.516Z,-2.86
2023-01-21T08:12:35.496Z,-2.86
2023-01-21T08:13:35.484Z,-2.76
2023-01-21T08:14:35.478Z,-2.81
2023-01-21T08:15:35.438Z,-2.76
2023-01-21T08:16:35.576Z,-2.74
2023-01-21T08:17:35.395Z,-2.74
2023-01-21T08:18:35.387Z,-2.62
2023-01-21T08:19:35.383Z,-2.59
2023-01-21T08:20:35.338Z,-2.66
2023-01-21T08:21:35.318Z,-2.62
2023-01-21T08:22:35.295Z,-2.53
2023-01-21T08:23:35.277Z,-2.52
2023-01-21T08:24:35.284Z,-2.42
2023-01-21T08:25:35.226Z,-2.37
2023-01-21T08:26:35.231Z,-2.44
2023-01-21T08:27:35.199Z,-2.40
2023-01-21T08:28:35.180Z,-2.35
2023-01-21T08:29:35.188Z,-2.45
2023-01-21T08:30:35.175Z,-2.37
2023-01-21T08:31:35.142Z,-2.34
2023-01-21T08:32:35.092Z,-2.21
2023-01-21T08:33:35.063Z,-2.26
2023-01-21T08:34:35.063Z,-2.26
2023-01-21T08:35:35.029Z,-2.22
2023-01-21T08:36:34.997Z,-2.30
2023-01-21T08:37:34.982Z,-2.19
2023-01-21T08:38:34.980Z,-2.22
2023-01-21T08:39:34.964Z,-2.32
2023-01-21T08:40:34.928Z,-2.28
2023-01-21T08:41:34.932Z,-2.23
2023-01-21T08:42:34.874Z,-2.22
2023-01-21T08:43:34.856Z,-2.16
2023-01-21T08:44:34.836Z,-2.26
2023-01-21T08:45:34.827Z,-2.30
2023-01-21T08:46:34.813Z,-2.19
2023-01-21T08:47:34.769Z,-2.23
2023-01-21T08:48:34.746Z,-2.19
2023-01-21T08:49:34.758Z,-2.16
2023-01-21T08:50:34.706Z,-2.13
2023-01-21T08:51:34.687Z,-2.10
2023-01-21T08:52:34.667Z,-2.08
2023-01-21T08:53:34.648Z,-2.05
2023-01-21T08:54:34.651Z,-2.19
2023-01-21T08:55:34.607Z,-2.13
2023-01-21T08:56:34.586Z,-2.08
2023-01-21T08:57:34.559Z,-1.89
2023-01-21T08:58:34.555Z,-1.82
2023-01-21T08:59:34.548Z,-1.83
2023-01-21T09:00:34.507Z,-1.97
2023-01-21T09:01:34.483Z,-1.87
2023-01-21T09:02:34.459Z,-2.07
2023-01-21T09:03:34.442Z,-2.02
2023-01-21T09:04:34.445Z,-1.98
2023-01-21T09:05:34.412Z,-1.80
2023-01-21T09:06:34.378Z,-1.84
2023-01-21T09:07:34.356Z,-1.72
2023-01-21T09:08:34.336Z,-1.71
2023-01-21T09:09:34.340Z,-1.65
2023-01-21T09:10:34.311Z,-1.69
2023-01-21T09:11:34.277Z,-1.69
2023-01-21T09:12:34.274Z,-1.62
2023-01-21T09:13:34.238Z,-1.69
2023-01-21T09:14:34.247Z,-1.65
2023-01-21T09:15:34.200Z,-1.68
2023-01-21T09:16:34.219Z,-1.58
2023-01-21T09:17:34.181Z,-1.54
2023-01-21T09:18:34.142Z,-1.58
2023-01-21T09:19:34.139Z,-1.59
2023-01-21T09:20:34.107Z,-1.47
2023-01-21T09:21:34.089Z,-1.37
2023-01-21T09:22:34.057Z,-1.33
2023-01-21T09:23:34.044Z,-1.35
2023-01-21T09:24:34.045Z,-1.37
2023-01-21T09:25:34.007Z,-1.38
2023-01-21T09:26:34.006Z,-1.44
2023-01-21T09:27:33.966Z,-1.37
2023-01-21T09:28:33.949Z,-1.33
2023-01-21T09:29:33.949Z,-1.35
2023-01-21T09:30:33.907Z,-1.41
2023-01-21T09:31:33.935Z,-1.50
2023-01-21T09:32:33.861Z,-1.51
2023-01-21T09:33:33.845Z,-1.40
2023-01-21T09:34:35.734Z,-1.30
2023-01-21T09:35:34.802Z,-1.35
2023-01-21T09:36:33.788Z,-1.23
2023-01-21T09:37:33.770Z,-1.35
2023-01-21T09:38:33.744Z,-1.44
2023-01-21T09:39:33.755Z,-1.33
2023-01-21T09:40:33.701Z,-1.23
2023-01-21T09:41:33.683Z,-1.22
2023-01-21T09:42:33.663Z,-1.17
2023-01-21T09:43:33.641Z,-1.09
2023-01-21T09:44:33.655Z,-1.05
2023-01-21T09:45:33.647Z,-0.97
2023-01-21T09:46:33.623Z,-0.96
2023-01-21T09:47:33.564Z,-0.80
2023-01-21T09:48:33.540Z,-1.01
2023-01-21T09:49:33.527Z,-1.08
2023-01-21T09:50:33.505Z,-1.19
2023-01-21T09:51:33.485Z,-1.12
2023-01-21T09:52:33.495Z,-0.97
2023-01-21T09:53:33.439Z,-0.94
2023-01-21T09:54:33.447Z,-0.97
2023-01-21T09:55:33.405Z,-0.91
2023-01-21T09:56:33.383Z,-0.90
2023-01-21T09:57:33.373Z,-0.93
2023-01-21T09:58:33.347Z,-0.91
2023-01-21T09:59:33.352Z,-0.89
2023-01-21T10:00:33.306Z,-0.97
2023-01-21T10:01:33.333Z,-1.04
2023-01-21T10:02:33.269Z,-0.96
2023-01-21T10:03:33.248Z,-1.15
2023-01-21T10:04:33.295Z,-1.19
2023-01-21T10:05:33.211Z,-1.09
2023-01-21T10:06:33.194Z,-1.14
2023-01-21T10:07:33.197Z,-1.12
2023-01-21T10:08:33.157Z,-1.05
2023-01-21T10:09:33.135Z,-0.96
2023-01-21T10:10:33.108Z,-1.05
2023-01-21T10:11:33.092Z,-1.14
2023-01-21T10:12:33.099Z,-1.09
2023-01-21T10:13:33.057Z,-1.20
2023-01-21T10:14:33.063Z,-1.19
2023-01-21T10:15:33.014Z,-1.19
2023-01-21T10:16:33.017Z,-1.15
2023-01-21T10:17:33.000Z,-1.08
2023-01-21T10:18:32.981Z,-1.26
2023-01-21T10:19:32.970Z,-1.20
2023-01-21T10:20:32.946Z,-1.19
2023-01-21T10:21:32.905Z,-1.29
2023-01-21T10:22:32.891Z,-1.32
2023-01-21T10:23:32.872Z,-1.23
2023-01-21T10:24:32.850Z,-1.48
2023-01-21T10:25:32.859Z,-1.41
2023-01-21T10:26:32.814Z,-1.29
2023-01-21T10:27:32.795Z,-1.23
2023-01-21T10:28:32.776Z,-1.29
2023-01-21T10:29:32.762Z,-1.43
2023-01-21T10:30:32.822Z,-1.47
2023-01-21T10:31:32.802Z,-1.50
2023-01-21T10:32:32.706Z,-1.64
2023-01-21T10:33:32.691Z,-1.74
2023-01-21T10:34:32.670Z,-1.80
2023-01-21T10:35:32.672Z,-1.87
2023-01-21T10:36:35.059Z,-1.79
2023-01-21T10:37:33.612Z,-1.64
2023-01-21T10:38:32.588Z,-1.86
2023-01-21T10:39:32.574Z,-1.86
2023-01-21T10:40:32.580Z,-1.84
2023-01-21T10:41:32.537Z,-1.77
2023-01-21T10:42:32.515Z,-1.71
2023-01-21T10:43:32.526Z,-1.87
2023-01-21T10:44:32.477Z,-1.86
2023-01-21T10:45:32.495Z,-1.86
2023-01-21T10:46:32.446Z,-1.76
2023-01-21T10:47:32.420Z,-1.74
2023-01-21T10:48:32.416Z,-1.89
2023-01-21T10:49:32.387Z,-1.95
2023-01-21T10:50:32.393Z,-1.80
2023-01-21T10:51:32.348Z,-1.65
2023-01-21T10:52:32.331Z,-1.68
2023-01-21T10:53:32.313Z,-1.62
2023-01-21T10:54:32.291Z,-1.87
2023-01-21T10:55:32.300Z,-1.83
2023-01-21T10:56:32.259Z,-1.68
2023-01-21T10:57:32.243Z,-1.62
2023-01-21T10:58:32.212Z,-1.51
2023-01-21T10:59:33.293Z,-1.46
2023-01-21T11:00:33.209Z,-1.43
2023-01-21T11:01:32.180Z,-1.44
2023-01-21T11:02:32.190Z,-1.48
2023-01-21T11:03:32.118Z,-1.58
2023-01-21T11:04:32.121Z,-1.61
2023-01-21T11:05:32.118Z,-1.53
2023-01-21T11:06:32.074Z,-1.46
2023-01-21T11:07:32.046Z,-1.41
2023-01-21T11:08:32.066Z,-1.54
2023-01-21T11:09:32.017Z,-1.43
2023-01-21T11:10:32.016Z,-1.47
2023-01-21T11:11:31.973Z,-1.51
2023-01-21T11:12:31.948Z,-1.51
2023-01-21T11:13:31.935Z,-1.50
2023-01-21T11:14:31.912Z,-1.50
2023-01-21T11:15:31.950Z,-1.47
2023-01-21T11:16:31.867Z,-1.41
2023-01-21T11:17:32.858Z,-1.35
2023-01-21T11:18:31.835Z,-1.30
2023-01-21T11:19:31.825Z,-1.25
2023-01-21T11:20:31.873Z,-1.15
2023-01-21T11:21:31.784Z,-1.12
2023-01-21T11:22:31.754Z,-0.85
2023-01-21T11:23:31.734Z,-0.65
2023-01-21T11:24:31.713Z,-0.62
2023-01-21T11:25:31.720Z,-0.35
2023-01-21T11:26:31.676Z,-0.23
2023-01-21T11:27:31.656Z,-0.29
2023-01-21T11:28:31.637Z,-0.43
2023-01-21T11:29:31.621Z,-0.26
2023-01-21T11:30:48.992Z,-0.23
2023-01-21T11:31:33.669Z,-0.03
2023-01-21T11:32:32.575Z,0.03
2023-01-21T11:33:31.550Z,0.01
2023-01-21T11:34:31.537Z,-0.14
2023-01-21T11:35:31.541Z,0.00
2023-01-21T11:36:31.528Z,0.23
2023-01-21T11:37:31.492Z,0.25
2023-01-21T11:38:31.460Z,0.32
2023-01-21T11:39:31.439Z,0.44
2023-01-21T11:40:31.443Z,0.32
2023-01-21T11:41:31.404Z,0.41
2023-01-21T11:42:31.386Z,0.43
2023-01-21T11:43:31.363Z,0.58
2023-01-21T11:44:31.333Z,0.63
2023-01-21T11:45:32.351Z,0.60
2023-01-21T11:46:31.364Z,0.62
2023-01-21T11:47:31.309Z,0.80
2023-01-21T11:48:31.263Z,0.69
2023-01-21T11:49:32.259Z,0.80
2023-01-21T11:50:31.264Z,0.80
2023-01-21T11:51:31.218Z,0.91
2023-01-21T11:52:31.190Z,0.78
2023-01-21T11:53:32.185Z,0.39
2023-01-21T11:54:31.169Z,0.36
2023-01-21T11:55:31.174Z,0.18
2023-01-21T11:56:31.138Z,0.23
2023-01-21T11:57:31.124Z,0.31
2023-01-21T11:58:31.088Z,0.50
2023-01-21T11:59:33.909Z,0.43
2023-01-21T12:00:32.079Z,0.21
2023-01-21T12:01:31.034Z,0.21
2023-01-21T12:02:31.030Z,0.21
2023-01-21T12:03:31.084Z,0.18
2023-01-21T12:04:30.977Z,0.21
2023-01-21T12:05:30.986Z,0.29
2023-01-21T12:06:30.953Z,0.31
2023-01-21T12:07:30.926Z,0.32
2023-01-21T12:08:30.909Z,0.16
2023-01-21T12:09:30.887Z,0.32
2023-01-21T12:10:30.892Z,0.44
2023-01-21T12:11:30.848Z,0.60
2023-01-21T12:12:30.834Z,0.66
2023-01-21T12:13:30.809Z,0.84
2023-01-21T12:14:30.788Z,0.81
2023-01-21T12:15:30.803Z,0.87
2023-01-21T12:16:30.756Z,0.94
2023-01-21T12:17:30.736Z,0.81
2023-01-21T12:18:30.722Z,0.91
2023-01-21T12:19:30.705Z,0.96
2023-01-21T12:20:30.707Z,1.04
2023-01-21T12:21:30.668Z,0.95
2023-01-21T12:22:30.654Z,1.05
2023-01-21T12:23:30.628Z,1.14
2023-01-21T12:24:30.606Z,1.30
2023-01-21T12:25:30.619Z,1.22
2023-01-21T12:26:30.571Z,1.26
2023-01-21T12:27:30.552Z,1.22
2023-01-21T12:28:30.546Z,1.12
2023-01-21T12:29:30.512Z,1.13
2023-01-21T12:30:30.589Z,1.08
2023-01-21T12:31:30.550Z,1.14
2023-01-21T12:32:30.475Z,1.13
2023-01-21T12:33:30.447Z,1.05
2023-01-21T12:34:30.430Z,0.99
2023-01-21T12:35:30.446Z,1.06
2023-01-21T12:36:30.391Z,0.99
2023-01-21T12:37:30.382Z,1.20
2023-01-21T12:38:30.357Z,1.24
2023-01-21T12:39:30.339Z,1.24
2023-01-21T12:40:30.373Z,1.30
2023-01-21T12:41:30.299Z,1.20
2023-01-21T12:42:30.283Z,1.30
2023-01-21T12:43:30.262Z,1.22
2023-01-21T12:44:30.246Z,1.12
2023-01-21T12:45:30.227Z,1.31
2023-01-21T12:46:30.307Z,1.38
2023-01-21T12:47:30.194Z,1.32
2023-01-21T12:48:30.179Z,1.31
2023-01-21T12:49:30.149Z,0.99
2023-01-21T12:50:30.135Z,0.74
2023-01-21T12:51:30.145Z,0.74
2023-01-21T12:52:30.099Z,0.73
2023-01-21T12:53:30.078Z,0.80
2023-01-21T12:54:30.066Z,0.84
2023-01-21T12:55:30.043Z,0.74